createdAt,value
2022-09-22T00:00:40.350Z,9.60
2022-09-22T00:01:40.303Z,9.70
2022-09-22T00:02:40.252Z,9.60
2022-09-22T00:03:40.240Z,10.30
2022-09-22T00:04:40.210Z,10.60
2022-09-22T00:05:40.211Z,9.10
2022-09-22T00:06:40.172Z,8.60
2022-09-22T00:07:40.150Z,11.50
2022-09-22T00:08:40.131Z,9.60
2022-09-22T00:09:40.110Z,10.10
2022-09-22T00:10:40.089Z,9.80
2022-09-22T00:11:40.069Z,9.50
2022-09-22T00:12:40.051Z,8.30
2022-09-22T00:13:40.030Z,9.70
2022-09-22T00:14:40.012Z,10.50
2022-09-22T00:15:39.989Z,10.80
2022-09-22T00:16:40.068Z,8.60
2022-09-22T00:17:39.952Z,9.80
2022-09-22T00:18:39.931Z,10.30
2022-09-22T00:19:39.910Z,8.60
2022-09-22T00:20:39.892Z,10.10
2022-09-22T00:21:39.895Z,10.30
2022-09-22T00:22:39.849Z,9.40
2022-09-22T00:23:39.831Z,8.70
2022-09-22T00:24:39.814Z,10.70
2022-09-22T00:25:39.796Z,10.30
2022-09-22T00:26:39.771Z,9.30
2022-09-22T00:27:39.753Z,8.60
2022-09-22T00:28:39.741Z,10.00
2022-09-22T00:29:39.714Z,9.60
2022-09-22T00:30:39.690Z,11.00
2022-09-22T00:31:39.749Z,9.40
2022-09-22T00:32:39.657Z,8.60
2022-09-22T00:33:39.633Z,8.60
2022-09-22T00:34:39.612Z,9.70
2022-09-22T00:35:39.591Z,10.10
2022-09-22T00:36:39.575Z,9.80
2022-09-22T00:37:39.571Z,9.30
2022-09-22T00:38:39.536Z,9.30
2022-09-22T00:39:39.519Z,8.70
2022-09-22T00:40:39.561Z,9.80
2022-09-22T00:41:39.479Z,11.40
2022-09-22T00:42:39.456Z,8.40
2022-09-22T00:43:39.435Z,10.60
2022-09-22T00:44:39.415Z,9.20
2022-09-22T00:45:39.394Z,8.10
2022-09-22T00:46:39.452Z,10.60
2022-09-22T00:47:39.355Z,8.30
2022-09-22T00:48:39.336Z,9.60
2022-09-22T00:49:39.322Z,10.50
2022-09-22T00:50:39.293Z,8.00
2022-09-22T00:51:39.285Z,10.00
2022-09-22T00:52:39.257Z,10.00
2022-09-22T00:53:39.256Z,9.40
2022-09-22T00:54:39.214Z,9.80
2022-09-22T00:55:39.199Z,9.60
2022-09-22T00:56:39.176Z,8.80
2022-09-22T00:57:39.151Z,10.00
2022-09-22T00:58:39.133Z,9.30
2022-09-22T00:59:39.113Z,12.90
2022-09-22T01:00:39.141Z,9.20
2022-09-22T01:01:39.149Z,8.60
2022-09-22T01:02:39.054Z,10.20
2022-09-22T01:03:39.031Z,8.00
2022-09-22T01:04:39.020Z,9.20
2022-09-22T01:05:38.989Z,8.50
2022-09-22T01:06:38.977Z,9.50
2022-09-22T01:07:38.951Z,10.60
2022-09-22T01:08:38.932Z,9.70
2022-09-22T01:09:38.932Z,8.80
2022-09-22T01:10:38.891Z,10.60
2022-09-22T01:11:38.875Z,10.90
2022-09-22T01:12:38.854Z,9.50
2022-09-22T01:13:38.835Z,9.40
2022-09-22T01:14:38.812Z,8.60
2022-09-22T01:15:38.855Z,8.20
2022-09-22T01:16:38.772Z,8.00
2022-09-22T01:17:38.749Z,8.90
2022-09-22T01:18:38.730Z,9.10
2022-09-22T01:19:38.711Z,10.30
2022-09-22T01:20:38.694Z,9.70
2022-09-22T01:21:38.669Z,9.30
2022-09-22T01:22:38.648Z,9.90
2022-09-22T01:23:38.628Z,9.80
2022-09-22T01:24:38.614Z,10.30
2022-09-22T01:25:38.607Z,11.10
2022-09-22T01:26:38.573Z,9.40
2022-09-22T01:27:38.551Z,11.40
2022-09-22T01:28:38.527Z,11.60
2022-09-22T01:29:38.509Z,12.30
2022-09-22T01:30:38.489Z,8.50
2022-09-22T01:31:38.575Z,10.30
2022-09-22T01:32:38.449Z,9.60
2022-09-22T01:33:38.424Z,11.50
2022-09-22T01:34:38.412Z,7.60
2022-09-22T01:35:38.385Z,9.30
2022-09-22T01:36:38.369Z,11.20
2022-09-22T01:37:38.344Z,9.40
2022-09-22T01:38:38.332Z,8.50
2022-09-22T01:39:38.309Z,8.70
2022-09-22T01:40:38.479Z,8.30
2022-09-22T01:41:38.294Z,10.20
2022-09-22T01:42:38.245Z,8.80
2022-09-22T01:43:38.226Z,9.80
2022-09-22T01:44:38.205Z,9.00
2022-09-22T01:45:38.188Z,10.30
2022-09-22T01:46:38.260Z,9.50
2022-09-22T01:47:38.145Z,9.10
2022-09-22T01:48:38.126Z,9.20
2022-09-22T01:49:38.112Z,9.80
2022-09-22T01:50:38.088Z,9.20
2022-09-22T01:51:38.063Z,10.10
2022-09-22T01:52:38.047Z,10.20
2022-09-22T01:53:38.023Z,9.20
2022-09-22T01:54:38.002Z,10.10
2022-09-22T01:55:37.982Z,8.90
2022-09-22T01:56:37.960Z,12.40
2022-09-22T01:57:37.962Z,10.20
2022-09-22T01:58:37.921Z,9.30
2022-09-22T01:59:37.900Z,10.30
2022-09-22T02:00:37.882Z,8.60
2022-09-22T02:01:38.049Z,9.10
2022-09-22T02:02:38.046Z,8.90
2022-09-22T02:03:37.820Z,9.20
2022-09-22T02:04:37.799Z,13.60
2022-09-22T02:05:37.778Z,9.70
2022-09-22T02:06:37.756Z,9.10
2022-09-22T02:07:37.735Z,9.70
2022-09-22T02:08:37.713Z,10.00
2022-09-22T02:09:37.696Z,8.80
2022-09-22T02:10:37.673Z,9.30
2022-09-22T02:11:37.655Z,10.50
2022-09-22T02:12:37.639Z,10.30
2022-09-22T02:13:37.638Z,9.60
2022-09-22T02:14:37.598Z,9.10
2022-09-22T02:15:37.628Z,11.30
2022-09-22T02:16:37.555Z,10.40
2022-09-22T02:17:37.534Z,10.90
2022-09-22T02:18:37.515Z,10.20
2022-09-22T02:19:37.489Z,9.80
2022-09-22T02:20:37.474Z,10.90
2022-09-22T02:21:37.449Z,10.60
2022-09-22T02:22:37.433Z,9.30
2022-09-22T02:23:37.412Z,10.40
2022-09-22T02:24:37.389Z,9.70
2022-09-22T02:25:37.371Z,10.80
2022-09-22T02:26:37.349Z,9.90
2022-09-22T02:27:37.327Z,9.20
2022-09-22T02:28:37.312Z,9.50
2022-09-22T02:29:37.311Z,10.50
2022-09-22T02:30:37.272Z,10.60
2022-09-22T02:31:37.365Z,10.90
2022-09-22T02:32:37.230Z,10.00
2022-09-22T02:33:38.338Z,9.30
2022-09-22T02:34:37.190Z,11.10
2022-09-22T02:35:37.164Z,9.40
2022-09-22T02:36:37.147Z,10.40
2022-09-22T02:37:37.129Z,10.10
2022-09-22T02:38:37.104Z,9.80
2022-09-22T02:39:37.083Z,11.00
2022-09-22T02:40:37.112Z,10.30
2022-09-22T02:41:37.042Z,10.70
2022-09-22T02:42:37.020Z,10.30
2022-09-22T02:43:36.999Z,8.50
2022-09-22T02:44:36.977Z,8.90
2022-09-22T02:45:36.976Z,9.60
2022-09-22T02:46:36.963Z,9.50
2022-09-22T02:47:36.924Z,9.00
2022-09-22T02:48:36.897Z,9.30
2022-09-22T02:49:36.877Z,10.10
2022-09-22T02:50:36.853Z,9.40
2022-09-22T02:51:36.838Z,10.70
2022-09-22T02:52:36.815Z,10.70
2022-09-22T02:53:36.794Z,8.90
2022-09-22T02:54:36.775Z,9.90
2022-09-22T02:55:36.754Z,11.80
2022-09-22T02:56:36.732Z,10.50
2022-09-22T02:57:36.710Z,10.10
2022-09-22T02:58:36.695Z,9.80
2022-09-22T02:59:36.674Z,10.10
2022-09-22T03:00:36.652Z,12.60
2022-09-22T03:01:36.758Z,11.20
2022-09-22T03:02:36.611Z,9.10
2022-09-22T03:03:36.584Z,11.20
2022-09-22T03:04:36.617Z,10.20
2022-09-22T03:05:36.547Z,9.80
2022-09-22T03:06:36.523Z,11.30
2022-09-22T03:07:36.502Z,10.40
2022-09-22T03:08:36.482Z,10.10
2022-09-22T03:09:36.466Z,10.90
2022-09-22T03:10:36.442Z,10.60
2022-09-22T03:11:36.670Z,10.10
2022-09-22T03:12:36.400Z,9.30
2022-09-22T03:13:36.380Z,10.40
2022-09-22T03:14:36.360Z,10.50
2022-09-22T03:15:36.433Z,10.20
2022-09-22T03:16:36.318Z,10.60
2022-09-22T03:17:36.324Z,9.50
2022-09-22T03:18:36.276Z,9.60
2022-09-22T03:19:36.254Z,10.20
2022-09-22T03:20:36.239Z,9.80
2022-09-22T03:21:36.213Z,8.40
2022-09-22T03:22:36.192Z,8.70
2022-09-22T03:23:36.178Z,9.80
2022-09-22T03:24:36.158Z,10.40
2022-09-22T03:25:36.128Z,9.00
2022-09-22T03:26:36.112Z,9.40
2022-09-22T03:27:36.087Z,8.60
2022-09-22T03:28:36.071Z,10.90
2022-09-22T03:29:36.049Z,9.00
2022-09-22T03:30:36.085Z,9.20
2022-09-22T03:31:36.007Z,9.20
2022-09-22T03:32:35.987Z,9.80
2022-09-22T03:33:35.984Z,9.10
2022-09-22T03:34:35.945Z,11.10
2022-09-22T03:35:35.925Z,10.20
2022-09-22T03:36:35.903Z,9.70
2022-09-22T03:37:35.887Z,10.90
2022-09-22T03:38:35.865Z,10.80
2022-09-22T03:39:35.844Z,9.60
2022-09-22T03:40:35.901Z,9.70
2022-09-22T03:41:35.800Z,10.00
2022-09-22T03:42:35.781Z,10.90
2022-09-22T03:43:35.759Z,9.40
2022-09-22T03:44:35.786Z,9.90
2022-09-22T03:45:35.721Z,9.00
2022-09-22T03:46:35.697Z,11.80
2022-09-22T03:47:35.675Z,11.20
2022-09-22T03:48:35.656Z,9.80
2022-09-22T03:49:35.656Z,12.30
2022-09-22T03:50:35.613Z,10.70
2022-09-22T03:51:35.593Z,9.30
2022-09-22T03:52:35.579Z,9.50
2022-09-22T03:53:35.551Z,11.50
2022-09-22T03:54:35.532Z,10.20
2022-09-22T03:55:35.510Z,11.30
2022-09-22T03:56:35.494Z,8.80
2022-09-22T03:57:35.469Z,10.00
2022-09-22T03:58:35.449Z,8.90
2022-09-22T03:59:35.423Z,9.40
2022-09-22T04:00:35.406Z,9.60
2022-09-22T04:01:35.435Z,9.40
2022-09-22T04:02:35.412Z,9.40
2022-09-22T04:03:35.343Z,9.20
2022-09-22T04:04:35.328Z,10.10
2022-09-22T04:05:35.320Z,8.70
2022-09-22T04:06:35.283Z,10.80
2022-09-22T04:07:35.257Z,9.20
2022-09-22T04:08:35.238Z,9.40
2022-09-22T04:09:35.225Z,9.80
2022-09-22T04:10:35.197Z,9.70
2022-09-22T04:11:35.175Z,11.60
2022-09-22T04:12:35.154Z,10.40
2022-09-22T04:13:35.135Z,12.80
2022-09-22T04:14:35.114Z,9.70
2022-09-22T04:15:35.089Z,10.00
2022-09-22T04:16:35.136Z,9.40
2022-09-22T04:17:35.051Z,9.70
2022-09-22T04:18:35.030Z,10.50
2022-09-22T04:19:35.005Z,9.50
2022-09-22T04:20:34.994Z,10.60
2022-09-22T04:21:34.985Z,11.00
2022-09-22T04:22:34.947Z,10.50
2022-09-22T04:23:34.925Z,9.80
2022-09-22T04:24:34.907Z,10.30
2022-09-22T04:25:34.884Z,9.40
2022-09-22T04:26:34.865Z,10.40
2022-09-22T04:27:34.842Z,10.30
2022-09-22T04:28:34.822Z,9.40
2022-09-22T04:29:34.800Z,10.90
2022-09-22T04:30:34.856Z,9.90
2022-09-22T04:31:34.761Z,11.30
2022-09-22T04:32:34.736Z,9.60
2022-09-22T04:33:34.716Z,9.30
2022-09-22T04:34:34.692Z,10.80
2022-09-22T04:35:34.670Z,11.30
2022-09-22T04:36:34.654Z,16.10
2022-09-22T04:37:34.651Z,29.70
2022-09-22T04:38:34.617Z,16.00
2022-09-22T04:39:34.592Z,12.70
2022-09-22T04:40:34.665Z,12.80
2022-09-22T04:41:34.550Z,12.30
2022-09-22T04:42:34.529Z,11.20
2022-09-22T04:43:34.505Z,9.90
2022-09-22T04:44:35.372Z,10.90
2022-09-22T04:45:39.396Z,11.50
2022-09-22T04:46:34.471Z,12.10
2022-09-22T04:47:34.428Z,10.50
2022-09-22T04:48:34.404Z,10.70
2022-09-22T04:49:34.382Z,9.90
2022-09-22T04:50:34.365Z,9.50
2022-09-22T04:51:34.336Z,9.20
2022-09-22T04:52:34.326Z,10.00
2022-09-22T04:53:34.319Z,10.60
2022-09-22T04:54:34.278Z,12.50
2022-09-22T04:55:34.252Z,11.10
2022-09-22T04:56:34.233Z,12.00
2022-09-22T04:57:34.218Z,11.10
2022-09-22T04:58:34.189Z,12.20
2022-09-22T04:59:34.167Z,11.00
2022-09-22T05:00:34.152Z,9.80
2022-09-22T05:01:34.203Z,9.50
2022-09-22T05:02:34.111Z,9.50
2022-09-22T05:03:34.145Z,12.40
2022-09-22T05:04:34.065Z,11.10
2022-09-22T05:05:34.044Z,11.50
2022-09-22T05:06:34.023Z,12.70
2022-09-22T05:07:34.028Z,10.60
2022-09-22T05:08:33.992Z,10.90
2022-09-22T05:09:33.983Z,10.80
2022-09-22T05:10:33.940Z,10.40
2022-09-22T05:11:33.920Z,13.40
2022-09-22T05:12:33.897Z,9.20
2022-09-22T05:13:33.875Z,10.00
2022-09-22T05:14:33.856Z,12.10
2022-09-22T05:15:33.838Z,9.70
2022-09-22T05:16:33.947Z,11.00
2022-09-22T05:17:33.792Z,11.20
2022-09-22T05:18:33.767Z,13.20
2022-09-22T05:19:33.754Z,9.20
2022-09-22T05:20:33.729Z,10.60
2022-09-22T05:21:33.708Z,10.10
2022-09-22T05:22:39.152Z,10.70
2022-09-22T05:23:33.665Z,12.10
2022-09-22T05:24:33.648Z,10.60
2022-09-22T05:25:33.643Z,12.50
2022-09-22T05:26:33.604Z,11.40
2022-09-22T05:27:33.587Z,9.60
2022-09-22T05:28:33.559Z,11.30
2022-09-22T05:29:33.536Z,11.00
2022-09-22T05:30:33.519Z,11.90
2022-09-22T05:31:33.551Z,11.30
2022-09-22T05:32:33.478Z,14.90
2022-09-22T05:33:33.455Z,11.60
2022-09-22T05:34:33.436Z,12.90
2022-09-22T05:35:36.654Z,10.80
2022-09-22T05:36:33.396Z,11.10
2022-09-22T05:37:33.370Z,11.60
2022-09-22T05:38:33.358Z,11.70
2022-09-22T05:39:33.330Z,12.00
2022-09-22T05:40:33.381Z,15.80
2022-09-22T05:41:33.308Z,11.20
2022-09-22T05:42:33.261Z,11.50
2022-09-22T05:43:33.245Z,11.40
2022-09-22T05:44:33.230Z,11.50
2022-09-22T05:45:33.253Z,11.80
2022-09-22T05:46:33.187Z,11.60
2022-09-22T05:47:33.161Z,11.00
2022-09-22T05:48:33.138Z,10.90
2022-09-22T05:49:33.117Z,12.30
2022-09-22T05:50:33.100Z,14.90
2022-09-22T05:51:33.074Z,12.40
2022-09-22T05:52:33.054Z,11.70
2022-09-22T05:53:33.033Z,12.90
2022-09-22T05:54:33.017Z,12.40
2022-09-22T05:55:32.994Z,11.30
2022-09-22T05:56:32.968Z,11.60
2022-09-22T05:57:32.972Z,12.30
2022-09-22T05:58:32.927Z,14.00
2022-09-22T05:59:32.907Z,12.20
2022-09-22T06:00:32.889Z,10.70
2022-09-22T06:01:32.977Z,12.30
2022-09-22T06:02:32.885Z,12.20
2022-09-22T06:03:32.824Z,10.60
2022-09-22T06:04:32.805Z,15.10
2022-09-22T06:05:35.097Z,14.60
2022-09-22T06:06:32.765Z,15.20
2022-09-22T06:07:32.741Z,12.90
2022-09-22T06:08:32.719Z,13.30
2022-09-22T06:09:32.693Z,15.30
2022-09-22T06:10:32.679Z,14.10
2022-09-22T06:11:32.653Z,15.60
2022-09-22T06:12:32.640Z,13.30
2022-09-22T06:13:32.636Z,12.60
2022-09-22T06:14:32.593Z,13.30
2022-09-22T06:15:32.574Z,13.20
2022-09-22T06:16:32.617Z,12.60
2022-09-22T06:17:32.537Z,13.20
2022-09-22T06:18:32.513Z,13.10
2022-09-22T06:19:32.489Z,12.90
2022-09-22T06:20:32.468Z,12.20
2022-09-22T06:21:32.452Z,12.50
2022-09-22T06:22:32.426Z,11.80
2022-09-22T06:23:32.407Z,10.60
2022-09-22T06:24:32.385Z,12.70
2022-09-22T06:25:32.363Z,14.40
2022-09-22T06:26:32.344Z,10.70
2022-09-22T06:27:32.337Z,12.00
2022-09-22T06:28:32.303Z,14.10
2022-09-22T06:29:32.304Z,14.50
2022-09-22T06:30:32.263Z,13.60
2022-09-22T06:31:32.286Z,12.10
2022-09-22T06:32:32.214Z,11.30
2022-09-22T06:33:32.201Z,10.40
2022-09-22T06:34:32.178Z,9.90
2022-09-22T06:35:32.162Z,13.40
2022-09-22T06:36:32.136Z,12.30
2022-09-22T06:37:32.117Z,12.30
2022-09-22T06:38:32.114Z,12.60
2022-09-22T06:39:32.078Z,11.80
2022-09-22T06:40:32.194Z,12.70
2022-09-22T06:41:32.044Z,10.50
2022-09-22T06:42:32.013Z,9.70
2022-09-22T06:43:31.994Z,10.60
2022-09-22T06:44:31.975Z,10.10
2022-09-22T06:45:32.128Z,10.70
2022-09-22T06:46:31.936Z,10.90
2022-09-22T06:47:31.918Z,14.20
2022-09-22T06:48:31.898Z,9.70
2022-09-22T06:49:31.891Z,11.10
2022-09-22T06:50:31.968Z,11.10
2022-09-22T06:51:31.847Z,11.30
2022-09-22T06:52:32.655Z,10.50
2022-09-22T06:53:31.816Z,11.70
2022-09-22T06:54:31.800Z,9.40
2022-09-22T06:55:31.800Z,8.80
2022-09-22T06:56:34.490Z,13.80
2022-09-22T06:57:31.755Z,7.90
2022-09-22T06:58:46.944Z,9.00
2022-09-22T06:59:31.728Z,10.10
2022-09-22T07:00:31.776Z,9.00
2022-09-22T07:01:31.831Z,7.90
2022-09-22T07:02:31.692Z,6.70
2022-09-22T07:03:31.677Z,6.50
2022-09-22T07:04:31.662Z,8.60
2022-09-22T07:05:31.658Z,7.10
2022-09-22T07:06:31.660Z,8.70
2022-09-22T07:07:31.633Z,6.80
2022-09-22T07:08:31.615Z,6.80
2022-09-22T07:09:31.604Z,7.00
2022-09-22T07:10:31.594Z,8.20
2022-09-22T07:11:33.448Z,6.50
2022-09-22T07:12:31.571Z,8.40
2022-09-22T07:13:31.563Z,8.60
2022-09-22T07:14:31.554Z,5.70
2022-09-22T07:15:31.547Z,6.50
2022-09-22T07:16:31.587Z,5.90
2022-09-22T07:17:31.551Z,5.40
2022-09-22T07:18:31.511Z,5.70
2022-09-22T07:19:31.510Z,6.20
2022-09-22T07:20:31.496Z,5.50
2022-09-22T07:21:31.490Z,5.30
2022-09-22T07:22:31.480Z,5.70
2022-09-22T07:23:31.476Z,5.40
2022-09-22T07:24:31.479Z,7.00
2022-09-22T07:25:31.468Z,6.80
2022-09-22T07:26:31.461Z,7.80
2022-09-22T07:27:31.496Z,5.70
2022-09-22T07:28:31.439Z,5.00
2022-09-22T07:29:31.440Z,4.70
2022-09-22T07:30:31.430Z,6.60
2022-09-22T07:31:31.481Z,5.90
2022-09-22T07:32:31.419Z,7.50
2022-09-22T07:33:31.436Z,5.70
2022-09-22T07:34:31.408Z,5.60
2022-09-22T07:35:31.407Z,5.40
2022-09-22T07:36:31.405Z,6.30
2022-09-22T07:37:31.401Z,5.00
2022-09-22T07:38:31.392Z,6.80
2022-09-22T07:39:31.397Z,6.40
2022-09-22T07:40:31.545Z,5.50
2022-09-22T07:41:31.382Z,5.20
2022-09-22T07:42:31.376Z,5.70
2022-09-22T07:43:31.375Z,6.40
2022-09-22T07:44:31.371Z,5.50
2022-09-22T07:45:31.370Z,4.90
2022-09-22T07:46:31.468Z,5.90
2022-09-22T07:47:31.366Z,5.20
2022-09-22T07:48:31.367Z,5.80
2022-09-22T07:49:31.429Z,5.50
2022-09-22T07:50:31.355Z,5.20
2022-09-22T07:51:31.355Z,6.60
2022-09-22T07:52:31.347Z,6.00
2022-09-22T07:53:31.353Z,5.90
2022-09-22T07:54:31.347Z,6.30
2022-09-22T07:55:31.344Z,9.00
2022-09-22T07:56:31.354Z,5.50
2022-09-22T07:57:31.341Z,5.40
2022-09-22T07:58:31.339Z,6.40
2022-09-22T07:59:31.339Z,5.10
2022-09-22T08:00:31.365Z,6.70
2022-09-22T08:01:31.336Z,6.40
2022-09-22T08:02:31.336Z,5.50
2022-09-22T08:03:31.331Z,7.10
2022-09-22T08:04:31.336Z,5.80
2022-09-22T08:05:31.355Z,6.90
2022-09-22T08:06:31.329Z,7.80
2022-09-22T08:07:31.332Z,6.60
2022-09-22T08:08:31.329Z,8.80
2022-09-22T08:09:31.335Z,7.40
2022-09-22T08:10:31.326Z,7.40
2022-09-22T08:11:31.333Z,7.60
2022-09-22T08:12:31.335Z,6.80
2022-09-22T08:13:31.329Z,5.30
2022-09-22T08:14:31.325Z,8.10
2022-09-22T08:15:31.330Z,6.10
2022-09-22T08:16:31.412Z,7.30
2022-09-22T08:17:31.334Z,7.10
2022-09-22T08:18:31.330Z,7.30
2022-09-22T08:19:31.329Z,5.60
2022-09-22T08:20:31.329Z,6.30
2022-09-22T08:21:31.354Z,10.90
2022-09-22T08:22:31.330Z,4.70
2022-09-22T08:23:31.331Z,5.00
2022-09-22T08:24:31.335Z,5.50
2022-09-22T08:25:31.339Z,6.70
2022-09-22T08:26:31.335Z,5.10
2022-09-22T08:27:31.340Z,5.40
2022-09-22T08:28:31.336Z,5.60
2022-09-22T08:29:31.342Z,4.70
2022-09-22T08:30:31.417Z,6.30
2022-09-22T08:31:31.380Z,6.20
2022-09-22T08:32:31.338Z,5.50
2022-09-22T08:33:31.339Z,6.60
2022-09-22T08:34:31.340Z,5.30
2022-09-22T08:35:31.340Z,5.10
2022-09-22T08:36:31.341Z,7.00
2022-09-22T08:37:31.362Z,5.40
2022-09-22T08:38:31.338Z,7.50
2022-09-22T08:39:31.342Z,6.00
2022-09-22T08:40:31.474Z,4.10
2022-09-22T08:41:31.349Z,7.90
2022-09-22T08:42:31.341Z,5.30
2022-09-22T08:43:31.344Z,5.60
2022-09-22T08:44:31.344Z,5.20
2022-09-22T08:45:31.345Z,5.60
2022-09-22T08:46:31.420Z,4.70
2022-09-22T08:47:31.349Z,4.90
2022-09-22T08:48:31.357Z,4.70
2022-09-22T08:49:31.355Z,4.80
2022-09-22T08:50:31.353Z,4.50
2022-09-22T08:51:31.349Z,6.40
2022-09-22T08:52:31.356Z,5.20
2022-09-22T08:53:31.380Z,5.20
2022-09-22T08:54:31.351Z,4.50
2022-09-22T08:55:31.350Z,5.50
2022-09-22T08:56:31.355Z,7.30
2022-09-22T08:57:31.357Z,5.10
2022-09-22T08:58:31.351Z,6.10
2022-09-22T08:59:31.351Z,7.70
2022-09-22T09:00:31.350Z,4.30
2022-09-22T09:01:31.449Z,5.20
2022-09-22T09:02:31.390Z,7.80
2022-09-22T09:03:31.355Z,5.60
2022-09-22T09:04:31.352Z,6.40
2022-09-22T09:05:31.348Z,5.40
2022-09-22T09:06:31.354Z,5.10
2022-09-22T09:07:31.348Z,5.80
2022-09-22T09:08:31.345Z,3.90
2022-09-22T09:09:31.365Z,6.20
2022-09-22T09:10:31.344Z,3.90
2022-09-22T09:11:31.349Z,5.60
2022-09-22T09:12:31.341Z,5.20
2022-09-22T09:13:31.341Z,6.30
2022-09-22T09:14:31.341Z,6.80
2022-09-22T09:15:31.336Z,6.00
2022-09-22T09:16:34.200Z,6.40
2022-09-22T09:17:31.336Z,4.50
2022-09-22T09:18:31.338Z,4.50
2022-09-22T09:19:31.336Z,4.50
2022-09-22T09:20:31.329Z,7.40
2022-09-22T09:21:31.335Z,5.30
2022-09-22T09:22:31.322Z,5.40
2022-09-22T09:25:31.343Z,4.50
2022-09-22T09:26:31.318Z,4.50
2022-09-22T09:27:31.313Z,5.00
2022-09-22T09:28:31.314Z,7.10
2022-09-22T09:29:31.307Z,6.20
2022-09-22T09:30:31.297Z,4.90
2022-09-22T09:31:31.381Z,5.20
2022-09-22T09:32:31.303Z,6.60
2022-09-22T09:33:31.293Z,4.60
2022-09-22T09:34:31.285Z,4.90
2022-09-22T09:35:31.281Z,4.70
2022-09-22T09:36:31.280Z,6.50
2022-09-22T09:37:31.275Z,5.70
2022-09-22T09:38:31.274Z,5.20
2022-09-22T09:39:31.265Z,4.70
2022-09-22T09:40:31.281Z,5.40
2022-09-22T09:41:31.284Z,5.70
2022-09-22T09:42:31.251Z,5.10
2022-09-22T09:43:31.248Z,4.80
2022-09-22T09:44:31.241Z,5.80
2022-09-22T09:45:31.241Z,4.30
2022-09-22T09:46:31.259Z,5.40
2022-09-22T09:47:31.236Z,7.00
2022-09-22T09:48:31.216Z,4.50
2022-09-22T09:49:31.221Z,5.40
2022-09-22T09:50:31.220Z,4.10
2022-09-22T09:51:31.206Z,5.10
2022-09-22T09:52:31.195Z,6.20
2022-09-22T09:53:31.197Z,4.30
2022-09-22T09:54:31.192Z,5.30
2022-09-22T09:55:31.186Z,5.50
2022-09-22T09:56:31.178Z,5.00
2022-09-22T09:57:31.193Z,4.80
2022-09-22T09:58:31.161Z,4.50
2022-09-22T09:59:31.157Z,4.50
2022-09-22T10:00:31.153Z,4.40
2022-09-22T10:01:31.184Z,6.80
2022-09-22T10:02:31.138Z,4.20
2022-09-22T10:03:31.168Z,3.70
2022-09-22T10:04:31.134Z,5.20
2022-09-22T10:05:31.117Z,7.90
2022-09-22T10:06:31.113Z,4.60
2022-09-22T10:08:31.104Z,6.40
2022-09-22T10:09:31.088Z,4.50
2022-09-22T10:10:31.081Z,4.30
2022-09-22T10:11:31.081Z,4.70
2022-09-22T10:12:31.070Z,6.70
2022-09-22T10:13:31.091Z,5.00
2022-09-22T10:14:31.053Z,5.00
2022-09-22T10:15:31.090Z,5.10
2022-09-22T10:16:31.039Z,4.10
2022-09-22T10:17:31.030Z,5.00
2022-09-22T10:18:31.018Z,5.70
2022-09-22T10:19:31.015Z,5.30
2022-09-22T10:20:31.005Z,5.70
2022-09-22T10:21:31.010Z,5.40
2022-09-22T10:22:30.992Z,5.60
2022-09-22T10:23:30.988Z,6.70
2022-09-22T10:24:30.974Z,5.90
2022-09-22T10:25:30.965Z,5.20
2022-09-22T10:26:30.967Z,5.30
2022-09-22T10:27:30.958Z,6.10
2022-09-22T10:28:30.940Z,5.10
2022-09-22T10:29:30.965Z,5.60
2022-09-22T10:30:30.930Z,5.10
2022-09-22T10:31:30.960Z,4.80
2022-09-22T10:32:30.909Z,4.70
2022-09-22T10:33:30.904Z,6.80
2022-09-22T10:34:30.900Z,3.90
2022-09-22T10:35:30.893Z,5.70
2022-09-22T10:36:30.908Z,4.70
2022-09-22T10:37:30.870Z,5.40
2022-09-22T10:38:30.961Z,5.30
2022-09-22T10:39:30.854Z,7.70
2022-09-22T10:40:30.925Z,5.60
2022-09-22T10:41:30.857Z,4.90
2022-09-22T10:42:30.825Z,7.20
2022-09-22T10:43:30.825Z,5.90
2022-09-22T10:44:41.060Z,6.10
2022-09-22T10:45:30.827Z,4.40
2022-09-22T10:46:30.845Z,5.20
2022-09-22T10:47:30.790Z,6.20
2022-09-22T10:48:30.783Z,4.50
2022-09-22T10:49:30.770Z,5.40
2022-09-22T10:50:30.757Z,3.80
2022-09-22T10:51:30.758Z,3.70
2022-09-22T10:52:30.745Z,4.60
2022-09-22T10:53:30.735Z,4.00
2022-09-22T10:54:30.729Z,4.20
2022-09-22T10:55:30.720Z,5.40
2022-09-22T10:56:30.707Z,4.60
2022-09-22T10:57:30.701Z,6.50
2022-09-22T10:58:30.692Z,5.50
2022-09-22T10:59:30.680Z,4.80
2022-09-22T11:00:32.190Z,4.70
2022-09-22T11:01:30.722Z,5.90
2022-09-22T11:02:30.656Z,5.10
2022-09-22T11:03:30.649Z,4.30
2022-09-22T11:04:30.712Z,5.60
2022-09-22T11:05:30.627Z,4.80
2022-09-22T11:06:30.614Z,3.90
2022-09-22T11:07:30.606Z,4.10
2022-09-22T11:08:30.598Z,6.10
2022-09-22T11:09:30.651Z,4.30
2022-09-22T11:10:30.582Z,5.80
2022-09-22T11:11:31.302Z,5.60
2022-09-22T11:12:30.562Z,5.10
2022-09-22T11:13:30.553Z,4.50
2022-09-22T11:14:30.540Z,4.20
2022-09-22T11:15:30.705Z,3.50
2022-09-22T11:16:30.526Z,5.20
2022-09-22T11:17:31.602Z,4.90
2022-09-22T11:18:30.514Z,4.90
2022-09-22T11:19:30.495Z,4.00
2022-09-22T11:20:30.479Z,4.40
2022-09-22T11:21:30.472Z,4.00
2022-09-22T11:22:30.467Z,4.90
2022-09-22T11:23:30.456Z,3.70
2022-09-22T11:24:30.450Z,6.20
2022-09-22T11:25:30.433Z,4.50
2022-09-22T11:26:30.427Z,4.40
2022-09-22T11:27:30.416Z,4.60
2022-09-22T11:28:30.409Z,6.60
2022-09-22T11:29:30.401Z,4.20
2022-09-22T11:30:30.389Z,6.50
2022-09-22T11:31:30.378Z,4.50
2022-09-22T11:32:30.382Z,4.80
2022-09-22T11:33:30.379Z,4.00
2022-09-22T11:34:30.348Z,7.00
2022-09-22T11:35:30.336Z,5.60
2022-09-22T11:36:30.321Z,4.30
2022-09-22T11:37:30.313Z,3.90
2022-09-22T11:38:30.300Z,3.80
2022-09-22T11:39:30.292Z,6.50
2022-09-22T11:40:30.314Z,5.30
2022-09-22T11:41:30.271Z,3.50
2022-09-22T11:42:30.258Z,4.00
2022-09-22T11:43:30.249Z,4.50
2022-09-22T11:44:30.242Z,5.70
2022-09-22T11:45:30.226Z,4.60
2022-09-22T11:46:30.258Z,4.50
2022-09-22T11:47:30.205Z,5.20
2022-09-22T11:48:30.194Z,4.70
2022-09-22T11:49:30.203Z,4.50
2022-09-22T11:50:30.172Z,3.20
2022-09-22T11:51:30.169Z,5.40
2022-09-22T11:52:30.152Z,5.70
2022-09-22T11:53:30.135Z,3.50
2022-09-22T11:54:30.127Z,4.30
2022-09-22T11:55:30.117Z,6.40
2022-09-22T11:56:30.103Z,4.00
2022-09-22T11:57:30.096Z,5.30
2022-09-22T11:58:30.089Z,3.80
2022-09-22T11:59:30.070Z,3.40
2022-09-22T12:00:30.058Z,3.70
2022-09-22T12:01:30.053Z,5.50
2022-09-22T12:02:30.152Z,3.80
2022-09-22T12:03:30.287Z,4.20
2022-09-22T12:04:30.019Z,4.00
2022-09-22T12:05:30.026Z,4.30
2022-09-22T12:06:29.995Z,3.70
2022-09-22T12:07:29.984Z,6.40
2022-09-22T12:08:29.970Z,4.00
2022-09-22T12:09:32.855Z,4.10
2022-09-22T12:10:29.951Z,4.70
2022-09-22T12:11:29.941Z,4.80
2022-09-22T12:12:29.930Z,3.60
2022-09-22T12:13:29.923Z,3.90
2022-09-22T12:14:29.904Z,4.30
2022-09-22T12:15:29.894Z,3.80
2022-09-22T12:16:29.885Z,5.60
2022-09-22T12:17:29.876Z,3.70
2022-09-22T12:18:29.859Z,4.30
2022-09-22T12:19:29.849Z,3.70
2022-09-22T12:20:29.840Z,6.10
2022-09-22T12:21:29.856Z,3.60
2022-09-22T12:22:29.817Z,3.70
2022-09-22T12:23:29.808Z,3.80
2022-09-22T12:24:29.793Z,5.60
2022-09-22T12:25:47.507Z,3.90
2022-09-22T12:26:29.769Z,3.70
2022-09-22T12:27:29.762Z,5.10
2022-09-22T12:28:29.750Z,4.20
2022-09-22T12:29:29.736Z,4.10
2022-09-22T12:30:29.778Z,3.80
2022-09-22T12:31:29.712Z,4.50
2022-09-22T12:32:29.707Z,3.50
2022-09-22T12:33:29.692Z,3.80
2022-09-22T12:34:29.691Z,5.60
2022-09-22T12:35:31.051Z,4.00
2022-09-22T12:36:29.651Z,3.30
2022-09-22T12:37:29.710Z,3.30
2022-09-22T12:38:29.631Z,3.20
2022-09-22T12:39:29.624Z,4.10
2022-09-22T12:40:29.689Z,4.20
2022-09-22T12:41:29.596Z,4.10
2022-09-22T12:42:29.590Z,3.80
2022-09-22T12:43:29.572Z,3.80
2022-09-22T12:44:29.561Z,2.90
2022-09-22T12:45:29.554Z,3.30
2022-09-22T12:46:29.534Z,3.70
2022-09-22T12:47:29.526Z,3.40
2022-09-22T12:48:29.513Z,3.80
2022-09-22T12:49:29.502Z,3.20
2022-09-22T12:50:29.489Z,3.50
2022-09-22T12:51:29.483Z,4.40
2022-09-22T12:52:29.465Z,4.70
2022-09-22T12:53:29.524Z,3.50
2022-09-22T12:54:29.448Z,4.40
2022-09-22T12:55:29.435Z,4.50
2022-09-22T12:56:29.419Z,3.50
2022-09-22T12:57:29.415Z,4.60
2022-09-22T12:58:29.397Z,5.30
2022-09-22T12:59:29.389Z,3.10
2022-09-22T13:00:32.807Z,3.30
2022-09-22T13:01:29.596Z,3.30
2022-09-22T13:02:29.372Z,3.40
2022-09-22T13:03:29.336Z,3.10
2022-09-22T13:04:29.327Z,3.90
2022-09-22T13:05:29.318Z,4.20
2022-09-22T13:06:29.298Z,6.00
2022-09-22T13:07:29.287Z,4.70
2022-09-22T13:08:29.277Z,3.90
2022-09-22T13:09:29.339Z,5.20
2022-09-22T13:10:29.248Z,4.50
2022-09-22T13:11:29.236Z,4.50
2022-09-22T13:12:29.233Z,3.70
2022-09-22T13:13:29.211Z,3.20